createdAt,value
2023-03-23T00:00:00.050Z, 55.3
2023-03-23T00:02:00.042Z, 55
2023-03-23T00:04:00.076Z, 54.7
2023-03-23T00:06:00.091Z, 55.1
2023-03-23T00:08:00.050Z, 56
2023-03-23T00:10:00.044Z, 56.7
2023-03-23T00:12:00.082Z, 56.7
2023-03-23T00:14:00.036Z, 56.9
2023-03-23T00:16:00.053Z, 57
2023-03-23T00:18:00.056Z, 58.4
2023-03-23T00:20:00.037Z, 61.2
2023-03-23T00:22:00.047Z, 59.5
2023-03-23T00:24:00.050Z, 60.9
2023-03-23T00:26:00.060Z, 60.1
2023-03-23T00:28:00.104Z, 60.7
2023-03-23T00:30:00.120Z, 62.9
2023-03-23T00:32:00.108Z, 64.3
2023-03-23T00:34:00.117Z, 64.6
2023-03-23T00:36:00.162Z, 66.4
2023-03-23T00:38:00.102Z, 67.9
2023-03-23T00:40:00.124Z, 68.1
2023-03-23T00:42:00.107Z, 66.7
2023-03-23T00:44:00.117Z, 67.3
2023-03-23T00:46:00.115Z, 68.5
2023-03-23T00:48:00.108Z, 68.2
2023-03-23T00:50:00.124Z, 68.4
2023-03-23T00:52:00.116Z, 67.4
2023-03-23T00:54:00.123Z, 67.8
2023-03-23T00:56:00.075Z, 67.4
2023-03-23T00:58:00.056Z, 67.9
2023-03-23T01:00:05.502Z, 68.6
2023-03-23T01:02:00.049Z, 69.6
2023-03-23T01:04:00.064Z, 71.6
2023-03-23T01:06:00.057Z, 72.2
2023-03-23T01:08:00.047Z, 72.8
2023-03-23T01:10:00.053Z, 73.6
2023-03-23T01:12:00.043Z, 73.3
2023-03-23T01:14:00.054Z, 71.9
2023-03-23T01:16:00.054Z, 73.4
2023-03-23T01:18:00.055Z, 73.8
2023-03-23T01:20:00.038Z, 73.3
2023-03-23T01:22:00.033Z, 73.1
2023-03-23T01:24:00.036Z, 72.9
2023-03-23T01:26:00.108Z, 73.3
2023-03-23T01:28:00.105Z, 73.6
2023-03-23T01:30:00.161Z, 73
2023-03-23T01:32:00.134Z, 72.7
2023-03-23T01:34:00.127Z, 69.7
2023-03-23T01:36:00.152Z, 69.9
2023-03-23T01:38:00.137Z, 71.2
2023-03-23T01:40:00.167Z, 71.8
2023-03-23T01:42:00.132Z, 71.8
2023-03-23T01:44:00.101Z, 71.2
2023-03-23T01:46:00.120Z, 70.2
2023-03-23T01:48:00.131Z, 69.7
2023-03-23T01:50:00.167Z, 68
2023-03-23T01:52:00.105Z, 67.2
2023-03-23T01:54:00.115Z, 66
2023-03-23T01:56:00.098Z, 63.8
2023-03-23T01:58:00.085Z, 63.4
2023-03-23T02:00:00.109Z, 63.6
2023-03-23T02:02:00.072Z, 63.6
2023-03-23T02:04:00.080Z, 63.3
2023-03-23T02:06:00.064Z, 63
2023-03-23T02:08:00.054Z, 63.9
2023-03-23T02:10:00.062Z, 64.5
2023-03-23T02:12:00.053Z, 64.8
2023-03-23T02:14:00.044Z, 65.4
2023-03-23T02:16:00.103Z, 65.6
2023-03-23T02:18:00.062Z, 65.1
2023-03-23T02:20:00.121Z, 65
2023-03-23T02:22:00.050Z, 65.4
2023-03-23T02:24:00.045Z, 65.2
2023-03-23T02:26:00.115Z, 63.4
2023-03-23T02:28:00.108Z, 63.4
2023-03-23T02:30:00.149Z, 63.7
2023-03-23T02:32:00.138Z, 63.3
2023-03-23T02:34:00.119Z, 63.8
2023-03-23T02:36:00.178Z, 64.8
2023-03-23T02:38:00.167Z, 64.1
2023-03-23T02:40:00.198Z, 64.5
2023-03-23T02:42:00.191Z, 64.2
2023-03-23T02:44:00.119Z, 66
2023-03-23T02:46:00.105Z, 66.8
2023-03-23T02:48:00.138Z, 68
2023-03-23T02:50:00.167Z, 68.5
2023-03-23T02:52:00.119Z, 68.1
2023-03-23T02:54:00.114Z, 68
2023-03-23T02:56:00.072Z, 68.3
2023-03-23T02:58:00.053Z, 68.6
2023-03-23T03:00:00.122Z, 71.1
2023-03-23T03:02:00.086Z, 71.1
2023-03-23T03:04:00.060Z, 72.1
2023-03-23T03:06:00.066Z, 73.6
2023-03-23T03:08:00.051Z, 74.2
2023-03-23T03:10:00.059Z, 74.8
2023-03-23T03:12:00.085Z, 74.6
2023-03-23T03:14:00.055Z, 74.9
2023-03-23T03:16:00.058Z, 76.6
2023-03-23T03:18:00.061Z, 77.2
2023-03-23T03:20:00.130Z, 77.2
2023-03-23T03:22:00.045Z, 76.8
2023-03-23T03:24:00.049Z, 76.9
2023-03-23T03:26:00.114Z, 75.2
2023-03-23T03:28:00.131Z, 74.9
2023-03-23T03:30:00.118Z, 75.2
2023-03-23T03:32:00.133Z, 75.4
2023-03-23T03:34:00.110Z, 75.1
2023-03-23T03:36:00.213Z, 75.4
2023-03-23T03:38:00.125Z, 73.9
2023-03-23T03:40:00.184Z, 73.8
2023-03-23T03:42:00.130Z, 74.2
2023-03-23T03:44:00.110Z, 73.5
2023-03-23T03:46:00.113Z, 73.6
2023-03-23T03:48:00.114Z, 73.4
2023-03-23T03:50:00.155Z, 74.7
2023-03-23T03:52:00.116Z, 74.7
2023-03-23T03:54:00.123Z, 75.4
2023-03-23T03:56:00.082Z, 74.3
2023-03-23T03:58:00.068Z, 74
2023-03-23T04:00:00.115Z, 73.9
2023-03-23T04:02:00.106Z, 74.2
2023-03-23T04:04:00.105Z, 73.2
2023-03-23T04:06:00.091Z, 73.2
2023-03-23T04:08:09.735Z, 74.2
2023-03-23T04:10:00.054Z, 73.7
2023-03-23T04:12:00.074Z, 74.3
2023-03-23T04:14:00.051Z, 75.2
2023-03-23T04:16:07.129Z, 74.2
2023-03-23T04:18:00.096Z, 74.7
2023-03-23T04:20:00.065Z, 76.7
2023-03-23T04:22:00.048Z, 77.4
2023-03-23T04:24:00.057Z, 78.3
2023-03-23T04:26:00.068Z, 78.9
2023-03-23T04:28:01.601Z, 78.6
2023-03-23T04:30:00.152Z, 80.4
2023-03-23T04:32:00.104Z, 80.2
2023-03-23T04:34:00.728Z, 79.9
2023-03-23T04:36:00.160Z, 81.2
2023-03-23T04:38:00.128Z, 81.6
2023-03-23T04:40:00.183Z, 81.9
2023-03-23T04:42:00.141Z, 80.8
2023-03-23T04:44:00.114Z, 80.9
2023-03-23T04:46:00.118Z, 80.6
2023-03-23T04:48:00.131Z, 80.9
2023-03-23T04:50:00.149Z, 81
2023-03-23T04:52:00.112Z, 81.2
2023-03-23T04:54:00.126Z, 82.3
2023-03-23T04:56:00.084Z, 82.6
2023-03-23T04:58:00.111Z, 82.8
2023-03-23T05:00:00.132Z, 82.6
2023-03-23T05:02:14.395Z, 82.4
2023-03-23T05:04:00.077Z, 82.1
2023-03-23T05:06:00.103Z, 82.8
2023-03-23T05:08:00.102Z, 82.9
2023-03-23T05:10:00.056Z, 82.6
2023-03-23T05:12:00.113Z, 82.4
2023-03-23T05:14:00.112Z, 82.8
2023-03-23T05:16:00.059Z, 82.4
2023-03-23T05:18:00.058Z, 81.9
2023-03-23T05:20:00.074Z, 82.1
2023-03-23T05:22:00.097Z, 81.7
2023-03-23T05:24:00.073Z, 81.5
2023-03-23T05:26:00.114Z, 82
2023-03-23T05:28:00.132Z, 82
2023-03-23T05:30:00.126Z, 81.7
2023-03-23T05:32:00.175Z, 80.8
2023-03-23T05:34:00.103Z, 81.5
2023-03-23T05:36:00.204Z, 81.4
2023-03-23T05:38:00.129Z, 81.2
2023-03-23T05:40:00.128Z, 81.3
2023-03-23T05:42:00.127Z, 81.3
2023-03-23T05:44:00.114Z, 81.8
2023-03-23T05:46:00.120Z, 81.6
2023-03-23T05:48:00.128Z, 80.9
2023-03-23T05:50:00.125Z, 81.1
2023-03-23T05:52:00.140Z, 81.5
2023-03-23T05:54:00.191Z, 81.5
2023-03-23T05:56:00.050Z, 82.1
2023-03-23T05:58:00.049Z, 82.3
2023-03-23T06:00:00.123Z, 81.9
2023-03-23T06:02:00.056Z, 82
2023-03-23T06:04:00.430Z, 82
2023-03-23T06:06:00.110Z, 82
2023-03-23T06:08:00.101Z, 82.6
2023-03-23T06:10:00.155Z, 82.6
2023-03-23T06:12:00.104Z, 82.7
2023-03-23T06:14:00.055Z, 82.9
2023-03-23T06:16:00.040Z, 82.1
2023-03-23T06:18:00.082Z, 82.3
2023-03-23T06:20:00.065Z, 82.3
2023-03-23T06:22:00.058Z, 80.8
2023-03-23T06:24:00.061Z, 81.1
2023-03-23T06:26:04.678Z, 81
2023-03-23T06:28:00.106Z, 81.2
2023-03-23T06:30:00.193Z, 79.9
2023-03-23T06:32:00.129Z, 79.9
2023-03-23T06:34:00.110Z, 79.7
2023-03-23T06:36:00.203Z, 78.5
2023-03-23T06:38:00.130Z, 78.2
2023-03-23T06:40:00.147Z, 77.8
2023-03-23T06:42:00.151Z, 77.9
2023-03-23T06:44:00.130Z, 78.4
2023-03-23T06:46:00.125Z, 78.5
2023-03-23T06:48:00.163Z, 78.1
2023-03-23T06:50:00.107Z, 78.6
2023-03-23T06:52:00.121Z, 78.8
2023-03-23T06:54:00.122Z, 78.9
2023-03-23T06:56:00.109Z, 78.7
2023-03-23T06:58:00.073Z, 78.9
2023-03-23T07:00:00.134Z, 78.3
2023-03-23T07:02:00.116Z, 79.4
2023-03-23T07:04:00.124Z, 79.1
2023-03-23T07:06:00.115Z, 79.5
2023-03-23T07:08:00.076Z, 79
2023-03-23T07:10:00.077Z, 79.2
2023-03-23T07:12:00.112Z, 78.9
2023-03-23T07:14:00.082Z, 77.1
2023-03-23T07:16:00.053Z, 77.4
2023-03-23T07:18:00.096Z, 77.3
2023-03-23T07:20:00.137Z, 77.2
2023-03-23T07:22:00.055Z, 77.2
2023-03-23T07:24:00.058Z, 77.8
2023-03-23T07:26:00.119Z, 76
2023-03-23T07:28:00.123Z, 76.3
2023-03-23T07:30:00.168Z, 77.2
2023-03-23T07:32:00.137Z, 78
2023-03-23T07:34:00.134Z, 76.9
2023-03-23T07:36:00.196Z, 76.5
2023-03-23T07:38:00.127Z, 76.6
2023-03-23T07:40:00.225Z, 77.8
2023-03-23T07:42:00.138Z, 77.4
2023-03-23T07:44:00.134Z, 77.2
2023-03-23T07:46:00.144Z, 77.5
2023-03-23T07:48:01.982Z, 78.1
2023-03-23T07:50:00.158Z, 77.4
2023-03-23T07:52:00.110Z, 77.7
2023-03-23T07:54:00.126Z, 77
2023-03-23T07:56:00.102Z, 76.5
2023-03-23T07:58:00.134Z, 77.2
2023-03-23T08:00:00.095Z, 77.1
2023-03-23T08:02:00.088Z, 76.5
2023-03-23T08:04:00.068Z, 77.1
2023-03-23T08:06:00.112Z, 76.3
2023-03-23T08:08:00.110Z, 75.8
2023-03-23T08:10:00.069Z, 76.7
2023-03-23T08:12:00.071Z, 76.6
2023-03-23T08:14:00.146Z, 76.3
2023-03-23T08:16:00.062Z, 76.9
2023-03-23T08:18:00.112Z, 77
2023-03-23T08:20:00.070Z, 77.3
2023-03-23T08:22:00.052Z, 76.5
2023-03-23T08:24:00.069Z, 76.4
2023-03-23T08:26:00.105Z, 76.8
2023-03-23T08:28:00.197Z, 76.4
2023-03-23T08:30:00.119Z, 75.8
2023-03-23T08:32:00.112Z, 75.7
2023-03-23T08:34:00.114Z, 74.5
2023-03-23T08:36:00.246Z, 74.9
2023-03-23T08:38:00.118Z, 75.3
2023-03-23T08:40:00.230Z, 75.5
2023-03-23T08:42:00.119Z, 75.3
2023-03-23T08:44:00.110Z, 75.1
2023-03-23T08:46:00.189Z, 75.2
2023-03-23T08:48:00.136Z, 75
2023-03-23T08:50:00.133Z, 74.2
2023-03-23T08:52:00.121Z, 75.8
2023-03-23T08:54:00.150Z, 73.9
2023-03-23T08:56:00.109Z, 73.6
2023-03-23T08:58:00.108Z, 73.1
2023-03-23T09:00:00.157Z, 73.8
2023-03-23T09:02:00.094Z, 73
2023-03-23T09:04:00.120Z, 71.4
2023-03-23T09:06:00.091Z, 68.8
2023-03-23T09:08:00.095Z, 69.9
2023-03-23T09:10:00.105Z, 70.6
2023-03-23T09:12:00.107Z, 68.3
2023-03-23T09:14:00.134Z, 70.9
2023-03-23T09:16:00.337Z, 71.1
2023-03-23T09:18:01.324Z, 68.9
2023-03-23T09:20:00.128Z, 70.1
2023-03-23T09:22:00.105Z, 71.3
2023-03-23T09:24:00.108Z, 70
2023-03-23T09:26:00.147Z, 69.6
2023-03-23T09:28:00.112Z, 70.6
2023-03-23T09:30:00.114Z, 72.4
2023-03-23T09:32:00.130Z, 72.6
2023-03-23T09:34:00.133Z, 71.8
2023-03-23T09:36:00.230Z, 73.5
2023-03-23T09:38:00.125Z, 71.3
2023-03-23T09:40:06.726Z, 70.9
2023-03-23T09:42:00.161Z, 69
2023-03-23T09:44:00.138Z, 69.8
2023-03-23T09:46:00.124Z, 71.6
2023-03-23T09:48:00.192Z, 70.4
2023-03-23T09:50:00.216Z, 70.6
2023-03-23T09:52:00.136Z, 71.4
2023-03-23T09:54:00.190Z, 70.8
2023-03-23T09:56:00.094Z, 70.2
2023-03-23T09:58:00.056Z, 70.3
2023-03-23T10:00:00.147Z, 68.9
2023-03-23T10:02:00.065Z, 68.9
2023-03-23T10:04:00.117Z, 69.4
2023-03-23T10:06:00.118Z, 70.6
2023-03-23T10:08:00.106Z, 70.1
2023-03-23T10:10:00.102Z, 71.9
2023-03-23T10:12:00.123Z, 71.8
2023-03-23T10:14:00.047Z, 72.2
2023-03-23T10:16:00.046Z, 72.4
2023-03-23T10:18:00.094Z, 72.7
2023-03-23T10:20:00.108Z, 72.7
2023-03-23T10:22:00.108Z, 71.8
2023-03-23T10:24:00.125Z, 72.5
2023-03-23T10:26:00.098Z, 73.6
2023-03-23T10:28:00.130Z, 73.2
2023-03-23T10:30:00.238Z, 73.9
2023-03-23T10:32:00.154Z, 72.4
2023-03-23T10:34:00.113Z, 72.2
2023-03-23T10:36:00.238Z, 72.1
2023-03-23T10:38:00.148Z, 71.9
2023-03-23T10:40:00.202Z, 73
2023-03-23T10:42:00.169Z, 72.4
2023-03-23T10:44:00.118Z, 71.3
2023-03-23T10:46:00.938Z, 70.4
2023-03-23T10:48:00.140Z, 71.1
2023-03-23T10:50:00.179Z, 69.7
2023-03-23T10:52:00.141Z, 68.9
2023-03-23T10:54:00.156Z, 69.3
2023-03-23T10:56:00.112Z, 69
2023-03-23T10:58:00.121Z, 69.8
2023-03-23T11:00:00.226Z, 70.4
2023-03-23T11:02:00.113Z, 70.1
2023-03-23T11:04:00.113Z, 69.7
2023-03-23T11:06:00.140Z, 70
2023-03-23T11:08:00.084Z, 69.1
2023-03-23T11:10:00.142Z, 69.7
2023-03-23T11:12:02.585Z, 69.8
2023-03-23T11:14:00.117Z, 69.5
2023-03-23T11:16:00.109Z, 68.9
2023-03-23T11:18:00.146Z, 69.4
2023-03-23T11:20:00.129Z, 70.2
2023-03-23T11:22:00.113Z, 70
2023-03-23T11:24:09.307Z, 70.4
2023-03-23T11:26:00.139Z, 69.9
2023-03-23T11:28:00.116Z, 69.2
2023-03-23T11:30:00.177Z, 69
2023-03-23T11:32:00.181Z, 69.5
2023-03-23T11:34:05.869Z, 68.9
2023-03-23T11:36:00.195Z, 69.9
2023-03-23T11:38:00.151Z, 69.9
2023-03-23T11:40:00.198Z, 69.7
2023-03-23T11:42:09.056Z, 69.5
2023-03-23T11:44:00.144Z, 68.5
2023-03-23T11:46:00.174Z, 69.4
2023-03-23T11:48:00.212Z, 69.9
2023-03-23T11:50:00.173Z, 70.1
2023-03-23T11:52:00.144Z, 70.1
2023-03-23T11:54:00.211Z, 69.7
2023-03-23T11:56:00.155Z, 67.9
2023-03-23T11:58:00.100Z, 67.5
2023-03-23T12:00:00.149Z, 68.5
2023-03-23T12:02:11.583Z, 69.1
2023-03-23T12:04:00.102Z, 67.8
2023-03-23T12:06:00.154Z, 66.5
2023-03-23T12:08:00.104Z, 68
2023-03-23T12:10:00.849Z, 68.1
2023-03-23T12:12:00.119Z, 67.7
2023-03-23T12:14:00.068Z, 66.5
2023-03-23T12:16:00.049Z, 66.5
2023-03-23T12:18:00.123Z, 67.2
2023-03-23T12:20:00.059Z, 65.5
2023-03-23T12:22:00.105Z, 66.8
2023-03-23T12:24:01.343Z, 67.4
2023-03-23T12:26:00.109Z, 66.8
2023-03-23T12:28:00.130Z, 66.4
2023-03-23T12:30:00.174Z, 66.5
2023-03-23T12:32:00.225Z, 66.5
2023-03-23T12:34:00.158Z, 65.9
2023-03-23T12:36:00.174Z, 64.6
2023-03-23T12:38:00.157Z, 66.2
2023-03-23T12:40:00.172Z, 65.9
2023-03-23T12:42:00.183Z, 67
2023-03-23T12:44:00.110Z, 66.9
2023-03-23T12:46:00.140Z, 67.4
2023-03-23T12:48:00.124Z, 68.1
2023-03-23T12:50:00.144Z, 65.9
2023-03-23T12:52:00.113Z, 67.3
2023-03-23T12:54:00.176Z, 65.8
2023-03-23T12:56:00.105Z, 67.8
2023-03-23T12:58:00.109Z, 67.1
2023-03-23T13:00:00.119Z, 66.7
2023-03-23T13:02:00.125Z, 65.4
2023-03-23T13:04:00.101Z, 65.9
2023-03-23T13:06:00.110Z, 67.1
2023-03-23T13:08:00.089Z, 66.2
2023-03-23T13:10:00.171Z, 65.9
2023-03-23T13:12:00.107Z, 65.5
2023-03-23T13:14:00.111Z, 65.2
2023-03-23T13:16:00.073Z, 64.7
2023-03-23T13:18:00.130Z, 63.7
2023-03-23T13:20:00.134Z, 64.2
2023-03-23T13:22:00.099Z, 63.3
2023-03-23T13:24:00.059Z, 63.7
2023-03-23T13:26:00.142Z, 64.5
2023-03-23T13:28:00.119Z, 63.3
2023-03-23T13:30:00.184Z, 63.2
2023-03-23T13:32:00.133Z, 62.8
2023-03-23T13:34:00.128Z, 63.3
2023-03-23T13:36:00.697Z, 65
2023-03-23T13:38:00.127Z, 63.1
2023-03-23T13:40:00.176Z, 62.3
2023-03-23T13:42:00.170Z, 61.7
2023-03-23T13:44:00.167Z, 62.9
2023-03-23T13:46:00.142Z, 61.2
2023-03-23T13:48:00.125Z, 62.3
2023-03-23T13:50:00.199Z, 61.7
2023-03-23T13:52:00.142Z, 62.1
2023-03-23T13:54:00.220Z, 63.6
2023-03-23T13:56:03.388Z, 63.8
2023-03-23T13:58:00.072Z, 64.6
2023-03-23T14:00:00.102Z, 67.3
2023-03-23T14:02:00.052Z, 67.4
2023-03-23T14:04:00.057Z, 67.4
2023-03-23T14:06:00.100Z, 67.9
2023-03-23T14:08:00.085Z, 67.9
2023-03-23T14:14:00.176Z, 67.9
2023-03-23T14:16:00.097Z, 68.5
2023-03-23T14:18:00.124Z, 68.5
2023-03-23T14:20:00.097Z, 67.1
2023-03-23T14:22:00.051Z, 68.1
2023-03-23T14:24:00.051Z, 68.1
2023-03-23T14:26:00.149Z, 68.2
2023-03-23T14:28:00.115Z, 68.2
2023-03-23T14:30:00.144Z, 67.2
2023-03-23T14:32:00.113Z, 68.2
2023-03-23T14:34:00.106Z, 68
2023-03-23T14:36:00.121Z, 67.4
2023-03-23T14:38:00.135Z, 68.8
2023-03-23T14:40:00.162Z, 68
2023-03-23T14:42:00.133Z, 67.3
2023-03-23T14:44:00.123Z, 66.7
2023-03-23T14:46:00.142Z, 65.4
2023-03-23T14:48:00.131Z, 67.1
2023-03-23T14:50:00.170Z, 67.3
2023-03-23T14:52:00.127Z, 67
2023-03-23T14:54:00.140Z, 66.4
2023-03-23T14:56:00.062Z, 66.7
2023-03-23T14:58:00.044Z, 65.2
2023-03-23T15:00:00.062Z, 66.9
2023-03-23T15:02:00.029Z, 65.9
2023-03-23T15:04:00.053Z, 66
2023-03-23T15:06:00.055Z, 65.7
2023-03-23T15:08:00.046Z, 64.8
2023-03-23T15:10:00.095Z, 67
2023-03-23T15:12:00.072Z, 66.1
2023-03-23T15:14:00.032Z, 65.9
2023-03-23T15:16:00.047Z, 66.8
2023-03-23T15:18:00.054Z, 65.6
2023-03-23T15:20:00.047Z, 65.4
2023-03-23T15:22:00.037Z, 65.1
2023-03-23T15:24:00.078Z, 66.2
2023-03-23T15:26:00.099Z, 66.6
2023-03-23T15:28:00.117Z, 66.1
2023-03-23T15:30:00.124Z, 67.7
2023-03-23T15:32:00.114Z, 67.8
2023-03-23T15:34:00.131Z, 66.5
2023-03-23T15:36:00.131Z, 67.8
2023-03-23T15:38:00.113Z, 65.9
2023-03-23T15:40:00.196Z, 65.5
2023-03-23T15:42:00.129Z, 66
2023-03-23T15:44:00.107Z, 66.6
2023-03-23T15:46:00.112Z, 66.7
2023-03-23T15:48:00.117Z, 66.1
2023-03-23T15:50:00.136Z, 66.4
2023-03-23T15:52:00.124Z, 67.1
2023-03-23T15:54:02.930Z, 67.1
2023-03-23T15:56:00.107Z, 65.9
2023-03-23T15:58:00.149Z, 66
2023-03-23T16:00:00.137Z, 66.3
2023-03-23T16:02:00.101Z, 65.4
2023-03-23T16:04:00.080Z, 65.2
2023-03-23T16:06:00.142Z, 65.8
2023-03-23T16:08:00.104Z, 65.7
2023-03-23T16:10:00.063Z, 64.4
2023-03-23T16:12:00.059Z, 64.9
2023-03-23T16:14:00.094Z, 64.9
2023-03-23T16:16:00.098Z, 65.2
2023-03-23T16:18:00.134Z, 65.6
2023-03-23T16:20:00.051Z, 65.6
2023-03-23T16:22:00.052Z, 66.2
2023-03-23T16:24:00.060Z, 66
2023-03-23T16:26:00.112Z, 65.3
2023-03-23T16:28:00.108Z, 65.4
2023-03-23T16:30:04.151Z, 65.7
2023-03-23T16:32:00.183Z, 66.1
2023-03-23T16:34:00.126Z, 67.6
2023-03-23T16:36:00.176Z, 68.1
2023-03-23T16:38:08.422Z, 66.1
2023-03-23T16:40:00.166Z, 66.9
2023-03-23T16:42:00.135Z, 67.7
2023-03-23T16:44:00.096Z, 68.8
2023-03-23T16:46:00.178Z, 67.8
2023-03-23T16:48:00.170Z, 67.4
2023-03-23T16:50:00.186Z, 68
2023-03-23T16:52:00.125Z, 67.2
2023-03-23T16:54:00.146Z, 67.9
2023-03-23T16:56:00.049Z, 68.1
2023-03-23T16:58:13.247Z, 67.4
2023-03-23T17:00:00.070Z, 67.5
2023-03-23T17:02:00.063Z, 68.9
2023-03-23T17:04:00.121Z, 68.5
2023-03-23T17:06:00.127Z, 67.3
2023-03-23T17:08:00.065Z, 67.4
2023-03-23T17:10:00.078Z, 68
2023-03-23T17:12:00.111Z, 68.1
2023-03-23T17:14:00.048Z, 69
2023-03-23T17:16:00.116Z, 69.2
2023-03-23T17:18:00.218Z, 68.7
2023-03-23T17:20:00.063Z, 68.3
2023-03-23T17:22:00.045Z, 68.3
2023-03-23T17:24:00.148Z, 69.5
2023-03-23T17:26:00.097Z, 70.3
2023-03-23T17:28:05.276Z, 69.8
2023-03-23T17:30:00.143Z, 70.4
2023-03-23T17:32:05.124Z, 70.7
2023-03-23T17:34:00.110Z, 70.6
2023-03-23T17:36:00.145Z, 70.8
2023-03-23T17:38:00.110Z, 70.9
2023-03-23T17:40:00.173Z, 70.8
2023-03-23T17:42:00.153Z, 70.8
2023-03-23T17:44:00.137Z, 70.4
2023-03-23T17:46:00.132Z, 69.9
2023-03-23T17:48:00.236Z, 70.1
2023-03-23T17:50:00.147Z, 71
2023-03-23T17:52:00.119Z, 70.8
2023-03-23T17:54:00.155Z, 70.9
2023-03-23T17:56:00.061Z, 70.6
2023-03-23T17:58:00.144Z, 71
2023-03-23T18:00:00.070Z, 70.7
2023-03-23T18:02:00.075Z, 70.1
2023-03-23T18:04:00.060Z, 70.8
2023-03-23T18:06:00.100Z, 71.3
2023-03-23T18:08:00.057Z, 71.1
2023-03-23T18:10:00.110Z, 71.2
2023-03-23T18:12:00.172Z, 71.2
2023-03-23T18:14:00.048Z, 71
2023-03-23T18:16:00.043Z, 70.8
2023-03-23T18:18:00.111Z, 71.4
2023-03-23T18:20:00.044Z, 71.2
2023-03-23T18:22:00.086Z, 71.4
2023-03-23T18:24:00.321Z, 70.9
2023-03-23T18:26:00.097Z, 71.4
2023-03-23T18:28:05.970Z, 72.3
2023-03-23T18:30:00.114Z, 72.5
2023-03-23T18:32:00.165Z, 73.3
2023-03-23T18:34:00.146Z, 73.5
2023-03-23T18:36:00.146Z, 73.7
2023-03-23T18:38:00.106Z, 74.4
2023-03-23T18:40:00.180Z, 74.7
2023-03-23T18:42:00.128Z, 75.4
2023-03-23T18:44:00.161Z, 75.2
2023-03-23T18:46:00.197Z, 74.4
2023-03-23T18:48:00.202Z, 74.2
2023-03-23T18:50:00.153Z, 73.6
2023-03-23T18:52:00.133Z, 73
2023-03-23T18:54:00.149Z, 72.9
2023-03-23T18:56:00.105Z, 73.1
2023-03-23T18:58:00.060Z, 72.5
2023-03-23T19:00:00.073Z, 73.2
2023-03-23T19:02:00.092Z, 73.5
2023-03-23T19:04:00.070Z, 73.2
2023-03-23T19:06:00.120Z, 73.4
2023-03-23T19:08:00.114Z, 73.3
2023-03-23T19:10:00.083Z, 73.2
2023-03-23T19:12:00.122Z, 73.1
2023-03-23T19:14:02.843Z, 73.2
2023-03-23T19:16:00.139Z, 72.8
2023-03-23T19:18:00.144Z, 72.7
2023-03-23T19:20:00.087Z, 72.7
2023-03-23T19:22:00.225Z, 72.5
2023-03-23T19:24:00.098Z, 72.6
2023-03-23T19:26:00.173Z, 72.7
2023-03-23T19:28:49.814Z, 72.7
2023-03-23T19:30:00.168Z, 73
2023-03-23T19:32:00.106Z, 73.1
2023-03-23T19:34:00.132Z, 72.8
2023-03-23T19:38:00.133Z, 72.8
2023-03-23T19:40:02.938Z, 72.9
2023-03-23T19:42:00.130Z, 72.9
2023-03-23T19:44:00.131Z, 73.4
2023-03-23T19:46:00.400Z, 73.4
2023-03-23T19:48:00.217Z, 73.5
2023-03-23T19:50:00.104Z, 73.4
2023-03-23T19:52:06.113Z, 73.6
2023-03-23T19:54:00.614Z, 73.8
2023-03-23T19:56:00.646Z, 74.1
2023-03-23T20:00:00.123Z, 74.8
2023-03-23T20:02:00.110Z, 74.9
2023-03-23T20:04:00.580Z, 75.2
2023-03-23T20:06:01.196Z, 75
2023-03-23T20:08:00.146Z, 74.7
2023-03-23T20:10:00.525Z, 74.7
2023-03-23T20:12:00.116Z, 75.3
2023-03-23T20:14:00.115Z, 75.4
2023-03-23T20:16:00.877Z, 75.6
2023-03-23T20:18:00.164Z, 76.4
2023-03-23T20:20:00.138Z, 76.7
2023-03-23T20:22:00.044Z, 77.1
2023-03-23T20:24:00.308Z, 78.1
2023-03-23T20:26:00.127Z, 78.9
2023-03-23T20:28:00.402Z, 78.8
2023-03-23T20:30:03.319Z, 79.1
2023-03-23T20:32:00.118Z, 79.5
2023-03-23T20:34:01.641Z, 79.9
2023-03-23T20:36:00.172Z, 80.3
2023-03-23T20:38:00.112Z, 80.1
2023-03-23T20:40:00.167Z, 80
2023-03-23T20:42:00.122Z, 79.8
2023-03-23T20:44:00.130Z, 79.9
2023-03-23T20:46:00.134Z, 79.5
2023-03-23T20:48:00.219Z, 78.7
2023-03-23T20:50:00.119Z, 78.5
2023-03-23T20:52:00.111Z, 78.8
2023-03-23T20:54:00.154Z, 79.2
2023-03-23T20:56:00.126Z, 79.3
2023-03-23T20:58:00.096Z, 79.5
2023-03-23T21:00:00.098Z, 80.2
2023-03-23T21:02:00.037Z, 80.5
2023-03-23T21:04:00.105Z, 80.7
2023-03-23T21:06:00.094Z, 80.7
2023-03-23T21:08:00.048Z, 80.8
2023-03-23T21:10:00.040Z, 80.7
2023-03-23T21:12:00.043Z, 80.8
2023-03-23T21:14:00.103Z, 80.7
2023-03-23T21:16:00.053Z, 80.5
2023-03-23T21:18:00.108Z, 80.3
2023-03-23T21:20:00.047Z, 79.7
2023-03-23T21:22:00.060Z, 80.1
2023-03-23T21:24:00.121Z, 79.9
2023-03-23T21:26:00.123Z, 79.5
2023-03-23T21:28:00.138Z, 79.2
2023-03-23T21:30:00.093Z, 79.5
2023-03-23T21:32:08.236Z, 80.6
2023-03-23T21:34:00.158Z, 80.8
2023-03-23T21:36:00.200Z, 80.7
2023-03-23T21:38:00.122Z, 80.4
2023-03-23T21:40:00.175Z, 80.3
2023-03-23T21:42:00.104Z, 80.9
2023-03-23T21:44:00.096Z, 81
2023-03-23T21:46:00.104Z, 80.8
2023-03-23T21:48:00.139Z, 80.9
2023-03-23T21:50:00.169Z, 80.8
2023-03-23T21:52:00.102Z, 80.8
2023-03-23T21:54:00.182Z, 80.5
2023-03-23T21:56:00.084Z, 80.3
2023-03-23T21:58:00.071Z, 80.4
2023-03-23T22:00:00.068Z, 80.7
2023-03-23T22:02:00.090Z, 80.6
2023-03-23T22:04:00.064Z, 80.5
2023-03-23T22:06:00.079Z, 80.4
2023-03-23T22:08:00.071Z, 80.5
2023-03-23T22:10:00.037Z, 80.4
2023-03-23T22:12:00.045Z, 80.4
2023-03-23T22:14:00.076Z, 80.2
2023-03-23T22:16:00.080Z, 80.6
2023-03-23T22:18:00.167Z, 80.5
2023-03-23T22:20:00.040Z, 80.4
2023-03-23T22:22:00.064Z, 80.6
2023-03-23T22:24:00.169Z, 80.7
2023-03-23T22:26:00.086Z, 80.9
2023-03-23T22:28:00.140Z, 80.5
2023-03-23T22:30:00.110Z, 80.4
2023-03-23T22:32:00.122Z, 80.2
2023-03-23T22:34:00.117Z, 79.8
2023-03-23T22:36:00.178Z, 79.1
2023-03-23T22:38:00.103Z, 79
2023-03-23T22:40:00.141Z, 79.1
2023-03-23T22:42:00.121Z, 78.7
2023-03-23T22:44:00.173Z, 78.3
2023-03-23T22:46:00.136Z, 78.5
2023-03-23T22:48:00.192Z, 78.7
2023-03-23T22:50:00.158Z, 79.1
2023-03-23T22:52:00.144Z, 79.9
2023-03-23T22:54:00.170Z, 80.5
2023-03-23T22:56:00.075Z, 81
2023-03-23T22:58:00.115Z, 81.7
2023-03-23T23:00:00.126Z, 82.5
2023-03-23T23:02:00.096Z, 83.3
2023-03-23T23:04:00.149Z, 83.8
2023-03-23T23:06:00.052Z, 84.4
2023-03-23T23:08:00.048Z, 84.8
2023-03-23T23:10:00.120Z, 84.9
2023-03-23T23:12:00.053Z, 85.5
2023-03-23T23:14:00.062Z, 85.4
2023-03-23T23:16:00.084Z, 85.3
2023-03-23T23:18:00.068Z, 86.1
2023-03-23T23:20:00.056Z, 87
2023-03-23T23:22:09.302Z, 87.5
2023-03-23T23:24:00.076Z, 87.6
2023-03-23T23:26:00.130Z, 87.7
2023-03-23T23:28:00.129Z, 87.8
2023-03-23T23:30:00.160Z, 88
2023-03-23T23:32:00.141Z, 87.7
2023-03-23T23:34:00.162Z, 88.3
2023-03-23T23:36:00.241Z, 89.8
2023-03-23T23:38:00.145Z, 90.2
2023-03-23T23:40:00.161Z, 90.6
2023-03-23T23:42:00.168Z, 89.9
2023-03-23T23:44:00.160Z, 89.3
2023-03-23T23:46:00.205Z, 89.1
2023-03-23T23:48:00.205Z, 88.9
2023-03-23T23:50:00.177Z, 88.9
2023-03-23T23:52:00.123Z, 90
2023-03-23T23:54:00.118Z, 89.6
2023-03-23T23:56:00.099Z, 89.6
2023-03-23T23:58:00.066Z, 89.6
